sensor_id;sensor_type;location;lat;lon;timestamp;P1;durP1;ratioP1;P2;durP2;ratioP2
55756;SDS011;41676;44.610;44.078;2024-03-06T00:04:06;16.27;;;9.18;;
55756;SDS011;41676;44.610;44.078;2024-03-06T00:09:07;16.15;;;10.48;;
55756;SDS011;41676;44.610;44.078;2024-03-06T00:14:08;18.23;;;11.57;;
55756;SDS011;41676;44.610;44.078;2024-03-06T00:19:09;17.60;;;11.38;;
55756;SDS011;41676;44.610;44.078;2024-03-06T00:24:13;19.55;;;9.90;;
55756;SDS011;41676;44.610;44.078;2024-03-06T00:29:14;14.70;;;9.13;;
55756;SDS011;41676;44.610;44.078;2024-03-06T00:34:15;14.48;;;8.95;;
55756;SDS011;41676;44.610;44.078;2024-03-06T00:39:16;15.77;;;7.93;;
55756;SDS011;41676;44.610;44.078;2024-03-06T00:44:17;14.82;;;7.97;;
55756;SDS011;41676;44.610;44.078;2024-03-06T00:49:18;14.38;;;7.55;;
55756;SDS011;41676;44.610;44.078;2024-03-06T00:54:18;13.75;;;7.93;;
55756;SDS011;41676;44.610;44.078;2024-03-06T00:59:19;21.70;;;8.50;;
55756;SDS011;41676;44.610;44.078;2024-03-06T01:04:20;14.88;;;8.25;;
55756;SDS011;41676;44.610;44.078;2024-03-06T01:09:21;11.27;;;7.72;;
55756;SDS011;41676;44.610;44.078;2024-03-06T01:14:23;12.30;;;7.00;;
55756;SDS011;41676;44.610;44.078;2024-03-06T01:19:24;12.85;;;7.70;;
55756;SDS011;41676;44.610;44.078;2024-03-06T01:24:25;12.10;;;7.40;;
55756;SDS011;41676;44.610;44.078;2024-03-06T01:29:25;12.45;;;7.50;;
55756;SDS011;41676;44.610;44.078;2024-03-06T01:34:26;12.05;;;7.80;;
55756;SDS011;41676;44.610;44.078;2024-03-06T01:39:27;13.43;;;7.70;;
55756;SDS011;41676;44.610;44.078;2024-03-06T01:44:28;16.02;;;8.13;;
55756;SDS011;41676;44.610;44.078;2024-03-06T01:49:29;11.07;;;7.50;;
55756;SDS011;41676;44.610;44.078;2024-03-06T01:54:31;12.60;;;7.60;;
55756;SDS011;41676;44.610;44.078;2024-03-06T01:59:32;15.50;;;8.52;;
55756;SDS011;41676;44.610;44.078;2024-03-06T02:04:34;20.40;;;8.57;;
55756;SDS011;41676;44.610;44.078;2024-03-06T02:09:35;16.67;;;9.05;;
55756;SDS011;41676;44.610;44.078;2024-03-06T02:14:36;20.20;;;9.15;;
55756;SDS011;41676;44.610;44.078;2024-03-06T02:19:40;17.48;;;9.45;;
55756;SDS011;41676;44.610;44.078;2024-03-06T02:24:44;12.57;;;8.80;;
55756;SDS011;41676;44.610;44.078;2024-03-06T02:29:46;18.08;;;9.18;;
55756;SDS011;41676;44.610;44.078;2024-03-06T02:34:47;15.07;;;9.57;;
55756;SDS011;41676;44.610;44.078;2024-03-06T02:39:48;14.40;;;8.13;;
55756;SDS011;41676;44.610;44.078;2024-03-06T02:44:49;21.58;;;9.60;;
55756;SDS011;41676;44.610;44.078;2024-03-06T02:49:50;22.10;;;9.88;;
55756;SDS011;41676;44.610;44.078;2024-03-06T02:54:50;17.42;;;11.25;;
55756;SDS011;41676;44.610;44.078;2024-03-06T02:59:51;21.75;;;11.05;;
55756;SDS011;41676;44.610;44.078;2024-03-06T03:04:52;26.10;;;11.43;;
55756;SDS011;41676;44.610;44.078;2024-03-06T03:09:53;29.00;;;13.63;;
55756;SDS011;41676;44.610;44.078;2024-03-06T03:14:54;34.50;;;14.02;;
55756;SDS011;41676;44.610;44.078;2024-03-06T03:19:55;19.92;;;11.95;;
55756;SDS011;41676;44.610;44.078;2024-03-06T03:24:55;26.80;;;11.63;;
55756;SDS011;41676;44.610;44.078;2024-03-06T03:29:56;19.67;;;12.75;;
55756;SDS011;41676;44.610;44.078;2024-03-06T03:34:57;27.40;;;13.90;;
55756;SDS011;41676;44.610;44.078;2024-03-06T03:39:58;23.40;;;12.52;;
55756;SDS011;41676;44.610;44.078;2024-03-06T03:44:59;21.65;;;12.57;;
55756;SDS011;41676;44.610;44.078;2024-03-06T03:49:59;24.75;;;11.38;;
55756;SDS011;41676;44.610;44.078;2024-03-06T03:55:00;19.50;;;11.55;;
55756;SDS011;41676;44.610;44.078;2024-03-06T04:00:01;22.77;;;10.90;;
55756;SDS011;41676;44.610;44.078;2024-03-06T04:05:03;16.40;;;10.02;;
55756;SDS011;41676;44.610;44.078;2024-03-06T04:10:05;157.50;;;51.10;;
55756;SDS011;41676;44.610;44.078;2024-03-06T04:15:07;36.30;;;16.35;;
55756;SDS011;41676;44.610;44.078;2024-03-06T04:20:08;22.00;;;12.43;;
55756;SDS011;41676;44.610;44.078;2024-03-06T04:25:12;25.50;;;14.15;;
55756;SDS011;41676;44.610;44.078;2024-03-06T04:30:12;31.98;;;13.55;;
55756;SDS011;41676;44.610;44.078;2024-03-06T04:35:15;22.35;;;12.40;;
55756;SDS011;41676;44.610;44.078;2024-03-06T04:40:15;24.38;;;11.43;;
55756;SDS011;41676;44.610;44.078;2024-03-06T04:45:18;21.48;;;10.60;;
55756;SDS011;41676;44.610;44.078;2024-03-06T04:50:18;24.13;;;10.88;;
55756;SDS011;41676;44.610;44.078;2024-03-06T04:55:19;21.20;;;11.35;;
55756;SDS011;41676;44.610;44.078;2024-03-06T05:00:22;20.70;;;12.48;;
55756;SDS011;41676;44.610;44.078;2024-03-06T05:05:24;25.73;;;12.10;;
55756;SDS011;41676;44.610;44.078;2024-03-06T05:10:25;32.08;;;12.48;;
55756;SDS011;41676;44.610;44.078;2024-03-06T05:15:27;46.17;;;14.13;;
55756;SDS011;41676;44.610;44.078;2024-03-06T05:20:30;25.15;;;13.65;;
55756;SDS011;41676;44.610;44.078;2024-03-06T05:25:31;29.48;;;13.88;;
55756;SDS011;41676;44.610;44.078;2024-03-06T05:30:32;25.90;;;12.63;;
55756;SDS011;41676;44.610;44.078;2024-03-06T05:35:33;28.13;;;14.30;;
55756;SDS011;41676;44.610;44.078;2024-03-06T05:40:33;23.23;;;12.80;;
55756;SDS011;41676;44.610;44.078;2024-03-06T05:45:37;27.40;;;13.55;;
55756;SDS011;41676;44.610;44.078;2024-03-06T05:50:38;25.85;;;12.52;;
55756;SDS011;41676;44.610;44.078;2024-03-06T05:55:39;35.58;;;14.95;;
55756;SDS011;41676;44.610;44.078;2024-03-06T06:00:40;44.90;;;22.08;;
55756;SDS011;41676;44.610;44.078;2024-03-06T06:05:41;39.38;;;18.63;;
55756;SDS011;41676;44.610;44.078;2024-03-06T06:10:42;26.40;;;14.90;;
55756;SDS011;41676;44.610;44.078;2024-03-06T06:15:43;28.08;;;15.32;;
55756;SDS011;41676;44.610;44.078;2024-03-06T06:20:43;34.53;;;16.83;;
55756;SDS011;41676;44.610;44.078;2024-03-06T06:25:45;32.08;;;15.95;;
55756;SDS011;41676;44.610;44.078;2024-03-06T06:30:46;27.65;;;15.63;;
55756;SDS011;41676;44.610;44.078;2024-03-06T06:35:46;25.92;;;14.57;;
55756;SDS011;41676;44.610;44.078;2024-03-06T06:40:47;28.65;;;14.23;;
55756;SDS011;41676;44.610;44.078;2024-03-06T06:45:48;30.13;;;14.70;;
55756;SDS011;41676;44.610;44.078;2024-03-06T06:50:49;30.33;;;15.30;;
55756;SDS011;41676;44.610;44.078;2024-03-06T06:55:50;33.17;;;16.33;;
55756;SDS011;41676;44.610;44.078;2024-03-06T07:00:51;45.25;;;19.95;;
55756;SDS011;41676;44.610;44.078;2024-03-06T07:05:52;34.42;;;17.67;;
55756;SDS011;41676;44.610;44.078;2024-03-06T07:10:54;34.30;;;20.60;;
55756;SDS011;41676;44.610;44.078;2024-03-06T07:15:55;30.23;;;18.10;;
55756;SDS011;41676;44.610;44.078;2024-03-06T07:20:56;31.70;;;17.50;;
55756;SDS011;41676;44.610;44.078;2024-03-06T07:25:57;30.17;;;16.52;;
55756;SDS011;41676;44.610;44.078;2024-03-06T07:30:59;31.48;;;17.17;;
55756;SDS011;41676;44.610;44.078;2024-03-06T07:36:00;37.13;;;18.80;;
55756;SDS011;41676;44.610;44.078;2024-03-06T07:41:01;39.58;;;18.90;;
55756;SDS011;41676;44.610;44.078;2024-03-06T07:46:02;34.88;;;17.42;;
55756;SDS011;41676;44.610;44.078;2024-03-06T07:51:03;31.10;;;18.27;;
55756;SDS011;41676;44.610;44.078;2024-03-06T07:56:04;28.70;;;16.95;;
55756;SDS011;41676;44.610;44.078;2024-03-06T08:01:05;39.22;;;18.80;;
55756;SDS011;41676;44.610;44.078;2024-03-06T08:06:07;31.50;;;18.08;;
55756;SDS011;41676;44.610;44.078;2024-03-06T08:11:08;36.97;;;18.70;;
55756;SDS011;41676;44.610;44.078;2024-03-06T08:16:11;32.90;;;17.35;;
55756;SDS011;41676;44.610;44.078;2024-03-06T08:21:11;32.53;;;17.52;;
55756;SDS011;41676;44.610;44.078;2024-03-06T08:26:12;30.48;;;16.17;;
55756;SDS011;41676;44.610;44.078;2024-03-06T08:31:13;31.60;;;16.23;;
55756;SDS011;41676;44.610;44.078;2024-03-06T08:36:14;31.92;;;17.70;;
55756;SDS011;41676;44.610;44.078;2024-03-06T08:41:15;30.70;;;16.35;;
55756;SDS011;41676;44.610;44.078;2024-03-06T08:46:16;28.05;;;15.57;;
55756;SDS011;41676;44.610;44.078;2024-03-06T08:51:16;30.55;;;16.13;;
55756;SDS011;41676;44.610;44.078;2024-03-06T08:56:17;44.97;;;16.48;;
55756;SDS011;41676;44.610;44.078;2024-03-06T09:01:18;30.25;;;15.95;;
55756;SDS011;41676;44.610;44.078;2024-03-06T09:06:19;37.72;;;15.80;;
55756;SDS011;41676;44.610;44.078;2024-03-06T09:11:20;27.55;;;15.57;;
55756;SDS011;41676;44.610;44.078;2024-03-06T09:16:21;33.17;;;16.63;;
55756;SDS011;41676;44.610;44.078;2024-03-06T09:21:21;33.03;;;18.20;;
55756;SDS011;41676;44.610;44.078;2024-03-06T09:26:22;39.00;;;18.65;;
55756;SDS011;41676;44.610;44.078;2024-03-06T09:31:23;32.53;;;17.77;;
55756;SDS011;41676;44.610;44.078;2024-03-06T09:36:25;34.35;;;16.25;;
55756;SDS011;41676;44.610;44.078;2024-03-06T09:41:26;34.67;;;17.70;;
55756;SDS011;41676;44.610;44.078;2024-03-06T09:46:26;35.47;;;19.70;;
55756;SDS011;41676;44.610;44.078;2024-03-06T09:51:28;30.13;;;16.80;;
55756;SDS011;41676;44.610;44.078;2024-03-06T09:56:30;33.88;;;17.55;;
55756;SDS011;41676;44.610;44.078;2024-03-06T10:01:32;41.05;;;18.88;;
55756;SDS011;41676;44.610;44.078;2024-03-06T10:06:35;33.72;;;17.92;;
55756;SDS011;41676;44.610;44.078;2024-03-06T10:11:39;35.40;;;18.13;;
55756;SDS011;41676;44.610;44.078;2024-03-06T10:16:56;35.53;;;17.90;;
55756;SDS011;41676;44.610;44.078;2024-03-06T10:21:58;27.45;;;15.25;;
55756;SDS011;41676;44.610;44.078;2024-03-06T10:26:59;27.30;;;16.17;;
55756;SDS011;41676;44.610;44.078;2024-03-06T10:32:00;31.88;;;15.73;;
55756;SDS011;41676;44.610;44.078;2024-03-06T10:37:01;18.75;;;11.82;;
55756;SDS011;41676;44.610;44.078;2024-03-06T10:42:06;32.35;;;17.48;;
55756;SDS011;41676;44.610;44.078;2024-03-06T10:47:09;33.53;;;15.68;;
55756;SDS011;41676;44.610;44.078;2024-03-06T10:52:11;31.42;;;16.00;;
55756;SDS011;41676;44.610;44.078;2024-03-06T10:57:13;34.67;;;15.60;;
55756;SDS011;41676;44.610;44.078;2024-03-06T11:02:14;28.38;;;15.52;;
55756;SDS011;41676;44.610;44.078;2024-03-06T11:07:16;24.20;;;14.27;;
55756;SDS011;41676;44.610;44.078;2024-03-06T11:12:34;27.30;;;15.38;;
55756;SDS011;41676;44.610;44.078;2024-03-06T11:17:36;31.15;;;16.73;;
55756;SDS011;41676;44.610;44.078;2024-03-06T11:28:02;31.70;;;17.98;;
55756;SDS011;41676;44.610;44.078;2024-03-06T11:33:04;35.05;;;19.88;;
55756;SDS011;41676;44.610;44.078;2024-03-06T11:38:05;29.27;;;19.30;;
55756;SDS011;41676;44.610;44.078;2024-03-06T11:43:22;35.58;;;20.80;;
55756;SDS011;41676;44.610;44.078;2024-03-06T11:48:24;36.83;;;20.92;;
55756;SDS011;41676;44.610;44.078;2024-03-06T11:53:25;30.40;;;20.30;;
55756;SDS011;41676;44.610;44.078;2024-03-06T11:58:28;31.58;;;19.88;;
55756;SDS011;41676;44.610;44.078;2024-03-06T12:03:29;30.38;;;22.13;;
55756;SDS011;41676;44.610;44.078;2024-03-06T12:08:30;44.72;;;27.38;;
55756;SDS011;41676;44.610;44.078;2024-03-06T12:13:31;43.08;;;23.98;;
55756;SDS011;41676;44.610;44.078;2024-03-06T12:18:33;35.65;;;19.77;;
55756;SDS011;41676;44.610;44.078;2024-03-06T12:23:34;34.70;;;21.77;;
55756;SDS011;41676;44.610;44.078;2024-03-06T12:28:35;35.78;;;21.92;;
55756;SDS011;41676;44.610;44.078;2024-03-06T12:33:36;32.05;;;22.13;;
55756;SDS011;41676;44.610;44.078;2024-03-06T12:38:37;34.42;;;20.40;;
55756;SDS011;41676;44.610;44.078;2024-03-06T12:43:38;39.30;;;20.85;;
55756;SDS011;41676;44.610;44.078;2024-03-06T12:48:39;31.20;;;19.10;;
55756;SDS011;41676;44.610;44.078;2024-03-06T12:53:40;30.45;;;20.20;;
55756;SDS011;41676;44.610;44.078;2024-03-06T12:58:41;27.88;;;18.13;;
55756;SDS011;41676;44.610;44.078;2024-03-06T13:03:42;35.45;;;19.98;;
55756;SDS011;41676;44.610;44.078;2024-03-06T13:08:43;35.67;;;19.33;;
55756;SDS011;41676;44.610;44.078;2024-03-06T13:13:43;34.45;;;20.25;;
55756;SDS011;41676;44.610;44.078;2024-03-06T13:18:45;35.10;;;19.40;;
55756;SDS011;41676;44.610;44.078;2024-03-06T13:23:49;30.80;;;18.75;;
55756;SDS011;41676;44.610;44.078;2024-03-06T13:28:49;37.83;;;21.88;;
55756;SDS011;41676;44.610;44.078;2024-03-06T13:33:51;34.65;;;21.33;;
55756;SDS011;41676;44.610;44.078;2024-03-06T13:38:55;32.28;;;19.98;;
55756;SDS011;41676;44.610;44.078;2024-03-06T13:43:56;40.13;;;19.90;;
55756;SDS011;41676;44.610;44.078;2024-03-06T13:48:57;36.33;;;21.10;;
55756;SDS011;41676;44.610;44.078;2024-03-06T13:53:58;40.10;;;20.17;;
55756;SDS011;41676;44.610;44.078;2024-03-06T13:58:59;29.13;;;18.50;;
55756;SDS011;41676;44.610;44.078;2024-03-06T14:04:00;32.22;;;19.05;;
55756;SDS011;41676;44.610;44.078;2024-03-06T14:09:01;30.92;;;18.75;;
55756;SDS011;41676;44.610;44.078;2024-03-06T14:14:01;35.28;;;19.83;;
55756;SDS011;41676;44.610;44.078;2024-03-06T14:19:02;31.23;;;19.52;;
55756;SDS011;41676;44.610;44.078;2024-03-06T14:24:04;36.60;;;20.02;;
55756;SDS011;41676;44.610;44.078;2024-03-06T14:29:09;43.67;;;20.55;;
55756;SDS011;41676;44.610;44.078;2024-03-06T14:34:10;41.83;;;19.42;;
55756;SDS011;41676;44.610;44.078;2024-03-06T14:39:11;40.58;;;21.42;;
55756;SDS011;41676;44.610;44.078;2024-03-06T14:44:13;74.63;;;23.02;;
55756;SDS011;41676;44.610;44.078;2024-03-06T14:49:14;76.75;;;21.27;;
55756;SDS011;41676;44.610;44.078;2024-03-06T14:54:16;47.15;;;20.83;;
55756;SDS011;41676;44.610;44.078;2024-03-06T14:59:17;36.70;;;20.25;;
55756;SDS011;41676;44.610;44.078;2024-03-06T15:04:18;69.72;;;22.88;;
55756;SDS011;41676;44.610;44.078;2024-03-06T15:09:20;70.03;;;22.05;;
55756;SDS011;41676;44.610;44.078;2024-03-06T15:14:23;70.00;;;32.33;;
55756;SDS011;41676;44.610;44.078;2024-03-06T15:19:24;103.30;;;28.80;;
55756;SDS011;41676;44.610;44.078;2024-03-06T15:24:25;51.10;;;23.63;;
55756;SDS011;41676;44.610;44.078;2024-03-06T15:29:26;40.40;;;22.00;;
55756;SDS011;41676;44.610;44.078;2024-03-06T15:34:27;51.05;;;20.67;;
55756;SDS011;41676;44.610;44.078;2024-03-06T15:39:28;38.75;;;19.80;;
55756;SDS011;41676;44.610;44.078;2024-03-06T15:44:29;67.70;;;21.60;;
55756;SDS011;41676;44.610;44.078;2024-03-06T15:49:30;43.85;;;19.50;;
55756;SDS011;41676;44.610;44.078;2024-03-06T15:54:31;31.67;;;18.13;;
55756;SDS011;41676;44.610;44.078;2024-03-06T15:59:35;49.72;;;20.10;;
55756;SDS011;41676;44.610;44.078;2024-03-06T16:04:36;31.35;;;18.02;;
55756;SDS011;41676;44.610;44.078;2024-03-06T16:09:37;30.42;;;19.17;;
55756;SDS011;41676;44.610;44.078;2024-03-06T16:14:38;45.55;;;20.23;;
55756;SDS011;41676;44.610;44.078;2024-03-06T16:19:39;28.27;;;18.70;;
55756;SDS011;41676;44.610;44.078;2024-03-06T16:24:40;34.75;;;19.27;;
55756;SDS011;41676;44.610;44.078;2024-03-06T16:29:43;34.15;;;18.67;;
55756;SDS011;41676;44.610;44.078;2024-03-06T16:34:43;30.40;;;19.25;;
55756;SDS011;41676;44.610;44.078;2024-03-06T16:39:45;43.10;;;19.33;;
55756;SDS011;41676;44.610;44.078;2024-03-06T16:44:47;42.60;;;20.77;;
55756;SDS011;41676;44.610;44.078;2024-03-06T16:49:48;38.65;;;19.67;;
55756;SDS011;41676;44.610;44.078;2024-03-06T16:54:50;36.17;;;19.77;;
55756;SDS011;41676;44.610;44.078;2024-03-06T16:59:51;46.90;;;23.23;;
55756;SDS011;41676;44.610;44.078;2024-03-06T17:04:52;56.17;;;28.60;;
55756;SDS011;41676;44.610;44.078;2024-03-06T17:09:53;66.15;;;30.15;;
55756;SDS011;41676;44.610;44.078;2024-03-06T17:14:53;65.28;;;33.15;;
55756;SDS011;41676;44.610;44.078;2024-03-06T17:19:54;69.40;;;33.03;;
55756;SDS011;41676;44.610;44.078;2024-03-06T17:24:55;71.75;;;31.50;;
55756;SDS011;41676;44.610;44.078;2024-03-06T17:29:56;77.30;;;30.48;;
55756;SDS011;41676;44.610;44.078;2024-03-06T17:34:57;56.83;;;28.48;;
55756;SDS011;41676;44.610;44.078;2024-03-06T17:39:58;67.78;;;30.05;;
55756;SDS011;41676;44.610;44.078;2024-03-06T17:44:59;52.03;;;28.60;;
55756;SDS011;41676;44.610;44.078;2024-03-06T17:50:04;64.03;;;31.17;;
55756;SDS011;41676;44.610;44.078;2024-03-06T17:55:04;56.65;;;28.52;;
55756;SDS011;41676;44.610;44.078;2024-03-06T18:00:06;57.65;;;28.58;;
55756;SDS011;41676;44.610;44.078;2024-03-06T18:10:11;62.83;;;25.77;;
55756;SDS011;41676;44.610;44.078;2024-03-06T18:15:12;52.92;;;25.73;;
55756;SDS011;41676;44.610;44.078;2024-03-06T18:20:13;58.22;;;27.38;;
55756;SDS011;41676;44.610;44.078;2024-03-06T18:25:14;67.82;;;28.52;;
55756;SDS011;41676;44.610;44.078;2024-03-06T18:30:15;63.88;;;29.73;;
55756;SDS011;41676;44.610;44.078;2024-03-06T18:35:16;60.65;;;29.58;;
55756;SDS011;41676;44.610;44.078;2024-03-06T18:40:16;72.80;;;32.13;;
55756;SDS011;41676;44.610;44.078;2024-03-06T18:45:17;66.10;;;30.90;;
55756;SDS011;41676;44.610;44.078;2024-03-06T18:50:18;68.13;;;28.88;;
55756;SDS011;41676;44.610;44.078;2024-03-06T18:55:21;61.85;;;29.38;;
55756;SDS011;41676;44.610;44.078;2024-03-06T19:00:22;61.33;;;29.92;;
55756;SDS011;41676;44.610;44.078;2024-03-06T19:05:23;55.70;;;27.45;;
55756;SDS011;41676;44.610;44.078;2024-03-06T19:10:24;69.28;;;28.77;;
55756;SDS011;41676;44.610;44.078;2024-03-06T19:15:25;63.88;;;30.20;;
55756;SDS011;41676;44.610;44.078;2024-03-06T19:20:25;58.50;;;29.95;;
55756;SDS011;41676;44.610;44.078;2024-03-06T19:25:26;110.45;;;32.47;;
55756;SDS011;41676;44.610;44.078;2024-03-06T19:30:27;62.28;;;28.48;;
55756;SDS011;41676;44.610;44.078;2024-03-06T19:35:28;52.75;;;27.63;;
55756;SDS011;41676;44.610;44.078;2024-03-06T19:40:28;57.78;;;29.15;;
55756;SDS011;41676;44.610;44.078;2024-03-06T19:45:29;57.83;;;27.73;;
55756;SDS011;41676;44.610;44.078;2024-03-06T19:50:30;53.85;;;27.77;;
55756;SDS011;41676;44.610;44.078;2024-03-06T19:55:32;63.95;;;28.05;;
55756;SDS011;41676;44.610;44.078;2024-03-06T20:00:32;56.10;;;26.80;;
55756;SDS011;41676;44.610;44.078;2024-03-06T20:05:33;48.78;;;25.95;;
55756;SDS011;41676;44.610;44.078;2024-03-06T20:10:34;44.05;;;26.10;;
55756;SDS011;41676;44.610;44.078;2024-03-06T20:15:36;49.95;;;24.50;;
55756;SDS011;41676;44.610;44.078;2024-03-06T20:20:37;42.15;;;23.02;;
55756;SDS011;41676;44.610;44.078;2024-03-06T20:25:41;45.40;;;25.27;;
55756;SDS011;41676;44.610;44.078;2024-03-06T20:30:42;41.50;;;23.40;;
55756;SDS011;41676;44.610;44.078;2024-03-06T20:35:45;55.20;;;24.67;;
55756;SDS011;41676;44.610;44.078;2024-03-06T20:40:47;40.65;;;22.77;;
55756;SDS011;41676;44.610;44.078;2024-03-06T20:45:50;39.30;;;23.70;;
55756;SDS011;41676;44.610;44.078;2024-03-06T20:50:51;40.75;;;24.33;;
55756;SDS011;41676;44.610;44.078;2024-03-06T20:55:52;49.33;;;24.33;;
55756;SDS011;41676;44.610;44.078;2024-03-06T21:00:53;50.22;;;25.67;;
55756;SDS011;41676;44.610;44.078;2024-03-06T21:05:55;41.63;;;25.48;;
55756;SDS011;41676;44.610;44.078;2024-03-06T21:10:56;40.55;;;24.98;;
55756;SDS011;41676;44.610;44.078;2024-03-06T21:15:58;50.33;;;23.65;;
55756;SDS011;41676;44.610;44.078;2024-03-06T21:20:59;42.70;;;24.10;;
55756;SDS011;41676;44.610;44.078;2024-03-06T21:26:01;43.38;;;24.35;;
55756;SDS011;41676;44.610;44.078;2024-03-06T21:31:02;39.08;;;22.80;;
55756;SDS011;41676;44.610;44.078;2024-03-06T21:36:03;52.47;;;23.42;;
55756;SDS011;41676;44.610;44.078;2024-03-06T21:41:04;42.30;;;22.25;;
55756;SDS011;41676;44.610;44.078;2024-03-06T21:46:09;41.00;;;23.42;;
55756;SDS011;41676;44.610;44.078;2024-03-06T21:51:11;40.15;;;23.50;;
55756;SDS011;41676;44.610;44.078;2024-03-06T21:56:12;45.25;;;23.88;;
55756;SDS011;41676;44.610;44.078;2024-03-06T22:01:13;46.15;;;25.55;;
55756;SDS011;41676;44.610;44.078;2024-03-06T22:06:14;47.90;;;25.73;;
55756;SDS011;41676;44.610;44.078;2024-03-06T22:11:15;50.85;;;25.13;;
55756;SDS011;41676;44.610;44.078;2024-03-06T22:16:16;42.90;;;26.25;;
55756;SDS011;41676;44.610;44.078;2024-03-06T22:21:16;48.63;;;28.02;;
55756;SDS011;41676;44.610;44.078;2024-03-06T22:26:17;49.55;;;27.30;;
55756;SDS011;41676;44.610;44.078;2024-03-06T22:31:18;50.72;;;26.15;;
55756;SDS011;41676;44.610;44.078;2024-03-06T22:36:19;46.08;;;25.55;;
55756;SDS011;41676;44.610;44.078;2024-03-06T22:41:21;39.40;;;23.58;;
55756;SDS011;41676;44.610;44.078;2024-03-06T22:46:23;50.35;;;25.08;;
55756;SDS011;41676;44.610;44.078;2024-03-06T22:51:24;39.85;;;22.20;;
55756;SDS011;41676;44.610;44.078;2024-03-06T22:56:25;46.90;;;20.27;;
55756;SDS011;41676;44.610;44.078;2024-03-06T23:01:27;39.35;;;20.63;;
55756;SDS011;41676;44.610;44.078;2024-03-06T23:06:28;51.35;;;21.55;;
55756;SDS011;41676;44.610;44.078;2024-03-06T23:11:29;41.80;;;21.10;;
55756;SDS011;41676;44.610;44.078;2024-03-06T23:16:30;53.65;;;21.70;;
55756;SDS011;41676;44.610;44.078;2024-03-06T23:21:31;40.58;;;22.17;;
55756;SDS011;41676;44.610;44.078;2024-03-06T23:31:36;47.58;;;22.63;;
55756;SDS011;41676;44.610;44.078;2024-03-06T23:36:36;48.38;;;22.35;;
55756;SDS011;41676;44.610;44.078;2024-03-06T23:41:37;35.95;;;19.98;;
55756;SDS011;41676;44.610;44.078;2024-03-06T23:46:38;46.00;;;21.40;;
55756;SDS011;41676;44.610;44.078;2024-03-06T23:51:39;49.65;;;21.77;;
55756;SDS011;41676;44.610;44.078;2024-03-06T23:56:45;42.78;;;21.50;;
